createdAt,value
2022-11-24T00:02:04.559Z,1000.538
2022-11-24T00:07:10.735Z,1000.48
2022-11-24T00:12:16.765Z,1000.537
2022-11-24T00:17:23.643Z,1000.579
2022-11-24T00:22:30.076Z,1000.549
2022-11-24T00:27:35.946Z,1000.637
2022-11-24T00:32:42.069Z,1000.592
2022-11-24T00:37:54.120Z,1000.673
2022-11-24T00:43:04.618Z,1000.511
2022-11-24T00:48:10.938Z,1000.576
2022-11-24T00:53:17.898Z,1000.453
2022-11-24T00:58:24.072Z,1000.517
2022-11-24T01:03:30.277Z,1000.643
2022-11-24T01:08:35.996Z,1000.616
2022-11-24T01:13:42.381Z,1000.693
2022-11-24T01:18:48.659Z,1000.778
2022-11-24T01:23:54.651Z,1000.765
2022-11-24T01:29:00.144Z,1000.634
2022-11-24T01:34:19.555Z,1000.579
2022-11-24T01:39:25.888Z,1000.707
2022-11-24T01:44:32.312Z,1000.734
2022-11-24T01:49:41.521Z,1000.87
2022-11-24T01:54:48.097Z,1000.898
2022-11-24T01:59:57.751Z,1000.891
2022-11-24T02:05:05.151Z,1000.949
2022-11-24T02:10:11.314Z,1000.951
2022-11-24T02:15:17.559Z,1001.029
2022-11-24T02:20:23.706Z,1001.019
2022-11-24T02:25:38.816Z,1000.974
2022-11-24T02:30:45.235Z,1000.992
2022-11-24T02:35:51.146Z,1000.995
2022-11-24T02:40:59.281Z,1001.114
2022-11-24T02:46:05.416Z,1001.149
2022-11-24T02:51:12.195Z,1001.078
2022-11-24T02:56:18.023Z,1000.987
2022-11-24T03:01:28.725Z,1001.011
2022-11-24T03:06:35.424Z,1001.145
2022-11-24T03:11:43.460Z,1001.104
2022-11-24T03:16:49.635Z,1001.074
2022-11-24T03:21:56.160Z,1001.177
2022-11-24T03:27:03.956Z,1001.27
2022-11-24T03:32:11.300Z,1001.34
2022-11-24T03:37:17.535Z,1001.354
2022-11-24T03:42:23.560Z,1001.244
2022-11-24T03:47:29.879Z,1001.238
2022-11-24T03:52:39.251Z,1001.337
2022-11-24T03:57:45.281Z,1001.467
2022-11-24T04:02:51.293Z,1001.483
2022-11-24T04:07:57.290Z,1001.601
2022-11-24T04:13:03.692Z,1001.523
2022-11-24T04:18:09.719Z,1001.492
2022-11-24T04:28:45.734Z,1001.407
2022-11-24T04:33:51.852Z,1001.511
2022-11-24T04:39:20.309Z,1001.647
2022-11-24T04:44:10.121Z,1001.751
2022-11-24T04:49:16.047Z,1001.791
2022-11-24T04:54:25.442Z,1001.945
2022-11-24T04:59:34.379Z,1002.024
2022-11-24T05:04:40.731Z,1002.055
2022-11-24T05:09:58.776Z,1002.097
2022-11-24T05:14:52.900Z,1002.092
2022-11-24T05:19:59.920Z,1002.202
2022-11-24T05:25:05.957Z,1002.225
2022-11-24T05:30:12.137Z,1002.231
2022-11-24T05:35:18.086Z,1002.312
2022-11-24T05:40:24.199Z,1002.338
2022-11-24T05:45:27.426Z,1002.387
2022-11-24T05:50:33.423Z,1002.355
2022-11-24T05:55:42.458Z,1002.376
2022-11-24T06:00:48.762Z,1002.394
2022-11-24T06:05:57.552Z,1002.42
2022-11-24T06:11:21.465Z,1002.509
2022-11-24T06:16:27.961Z,1002.489
2022-11-24T06:43:33.393Z,1002.962
2022-11-24T06:48:39.068Z,1002.944
2022-11-24T06:53:44.629Z,1002.95
2022-11-24T06:58:53.667Z,1002.97
2022-11-24T07:03:59.766Z,1003.056
2022-11-24T07:09:05.488Z,1003.096
2022-11-24T07:14:11.664Z,1003.243
2022-11-24T07:19:21.661Z,1003.146
2022-11-24T07:24:26.787Z,1003.22
2022-11-24T07:29:32.985Z,1003.254
2022-11-24T07:34:38.502Z,1003.276
2022-11-24T07:39:47.674Z,1003.285
2022-11-24T07:50:24.629Z,1003.44
2022-11-24T07:55:30.609Z,1003.538
2022-11-24T08:00:36.812Z,1003.548
2022-11-24T08:06:00.967Z,1003.535
2022-11-24T08:10:48.929Z,1003.467
2022-11-24T08:15:58.842Z,1003.582
2022-11-24T08:21:08.254Z,1003.518
2022-11-24T08:26:16.243Z,1003.569
2022-11-24T08:31:22.499Z,1003.607
2022-11-24T08:36:26.753Z,1003.638
2022-11-24T08:41:32.600Z,1003.621
2022-11-24T08:46:38.752Z,1003.67
2022-11-24T08:51:44.972Z,1003.613
2022-11-24T08:56:51.061Z,1003.685
2022-11-24T09:01:57.189Z,1003.838
2022-11-24T09:07:01.197Z,1003.871
2022-11-24T09:12:09.943Z,1003.883
2022-11-24T09:17:13.139Z,1003.902
2022-11-24T09:22:17.401Z,1003.913
2022-11-24T09:27:23.196Z,1003.961
2022-11-24T09:32:29.484Z,1003.963
2022-11-24T09:37:37.268Z,1004.108
2022-11-24T09:42:42.686Z,1004.142
2022-11-24T09:48:04.718Z,1004.086
2022-11-24T09:53:11.060Z,1004.185
2022-11-24T09:58:16.955Z,1004.193
2022-11-24T10:03:22.979Z,1004.113
2022-11-24T10:08:26.851Z,1004.157
2022-11-24T10:13:32.839Z,1004.055
2022-11-24T10:18:40.487Z,1004.098
2022-11-24T10:23:51.120Z,1004.189
2022-11-24T10:28:49.710Z,1004.28
2022-11-24T10:33:55.839Z,1004.287
2022-11-24T10:39:01.709Z,1004.368
2022-11-24T10:44:07.373Z,1004.309
2022-11-24T10:49:13.519Z,1004.311
2022-11-24T10:54:22.721Z,1004.281
2022-11-24T10:59:28.998Z,1004.355
2022-11-24T11:04:34.671Z,1004.406
2022-11-24T11:09:43.738Z,1004.315
2022-11-24T11:14:49.971Z,1004.468
2022-11-24T11:20:01.921Z,1004.406
2022-11-24T11:25:01.536Z,1004.254
2022-11-24T11:35:11.588Z,1004.301
2022-11-24T11:40:18.481Z,1004.301
2022-11-24T11:45:24.499Z,1004.318
2022-11-24T11:50:30.629Z,1004.363
2022-11-24T11:55:36.470Z,1004.332
2022-11-24T12:00:44.861Z,1004.426
2022-11-24T12:05:50.954Z,1004.401
2022-11-24T12:38:03.694Z,1004.408
2022-11-24T12:43:09.521Z,1004.462
2022-11-24T12:48:15.621Z,1004.47
2022-11-24T12:53:21.626Z,1004.542
2022-11-24T12:58:26.960Z,1004.497
2022-11-24T13:03:32.840Z,1004.492
2022-11-24T13:08:39.348Z,1004.533
2022-11-24T13:13:44.934Z,1004.569
2022-11-24T13:18:50.185Z,1004.655
2022-11-24T13:23:56.535Z,1004.686
2022-11-24T13:29:09.213Z,1004.676
2022-11-24T13:34:05.422Z,1004.687
2022-11-24T13:39:09.730Z,1004.845
2022-11-24T13:44:17.527Z,1004.995
2022-11-24T13:49:22.904Z,1005.084
2022-11-24T13:54:29.421Z,1005.13
2022-11-24T13:59:35.030Z,1005.123
2022-11-24T14:04:41.264Z,1005.193
2022-11-24T14:09:47.187Z,1005.309
2022-11-24T14:14:53.372Z,1005.428
2022-11-24T14:19:59.222Z,1005.422
2022-11-24T14:25:05.509Z,1005.476
2022-11-24T14:30:10.769Z,1005.471
2022-11-24T14:35:17.174Z,1005.557
2022-11-24T14:40:23.362Z,1005.638
2022-11-24T14:45:29.331Z,1005.652
2022-11-24T14:50:35.456Z,1005.679
2022-11-24T14:55:41.406Z,1005.752
2022-11-24T15:00:45.568Z,1005.819
2022-11-24T15:05:51.784Z,1005.845
2022-11-24T15:11:00.935Z,1005.852
2022-11-24T15:16:09.842Z,1005.873
2022-11-24T15:21:19.375Z,1005.96
2022-11-24T15:26:26.002Z,1006.03
2022-11-24T15:31:28.170Z,1006
2022-11-24T15:36:33.567Z,1006.09
2022-11-24T15:41:39.661Z,1006.135
2022-11-24T15:46:43.259Z,1006.184
2022-11-24T15:51:49.720Z,1006.321
2022-11-24T15:56:56.073Z,1006.412
2022-11-24T16:02:02.406Z,1006.344
2022-11-24T16:07:08.803Z,1006.35
2022-11-24T16:12:14.483Z,1006.382
2022-11-24T16:17:20.698Z,1006.385
2022-11-24T16:27:56.731Z,1006.484
2022-11-24T16:33:03.567Z,1006.483
2022-11-24T16:38:09.741Z,1006.542
2022-11-24T16:48:45.886Z,1006.61
2022-11-24T16:53:51.801Z,1006.602
2022-11-24T16:58:57.338Z,1006.599
2022-11-24T17:04:01.653Z,1006.664
2022-11-24T17:09:07.759Z,1006.753
2022-11-24T17:19:47.104Z,1006.783
2022-11-24T17:24:53.255Z,1006.831
2022-11-24T17:29:59.526Z,1006.855
2022-11-24T17:35:05.610Z,1006.835
2022-11-24T17:40:29.768Z,1006.844
2022-11-24T17:50:53.909Z,1006.812
2022-11-24T17:56:00.045Z,1006.831
2022-11-24T18:01:06.296Z,1006.878
2022-11-24T18:06:12.254Z,1006.912
2022-11-24T18:11:18.240Z,1006.967
2022-11-24T18:16:22.692Z,1007.035
2022-11-24T18:21:28.958Z,1007.09
2022-11-24T18:26:34.870Z,1007.101
2022-11-24T18:31:44.137Z,1007.13
2022-11-24T18:36:54.400Z,1007.139
2022-11-24T18:42:00.624Z,1007.236
2022-11-24T18:47:09.100Z,1007.282
2022-11-24T18:52:18.530Z,1007.288
2022-11-24T18:57:34.997Z,1007.073
2022-11-24T19:02:47.031Z,1007.186
2022-11-24T19:07:53.308Z,1007.166
2022-11-24T19:13:02.289Z,1007.032
2022-11-24T19:18:08.728Z,1007.123
2022-11-24T19:23:14.867Z,1007.189
2022-11-24T19:33:55.399Z,1007.262
2022-11-24T19:44:31.952Z,1007.343
2022-11-24T19:49:53.472Z,1007.367
2022-11-24T19:55:00.399Z,1007.529
2022-11-24T20:00:06.293Z,1007.576
2022-11-24T20:38:19.414Z,1007.908
2022-11-24T20:43:25.633Z,1007.856
2022-11-24T20:48:31.540Z,1007.944
2022-11-24T20:53:37.937Z,1008.01
2022-11-24T20:58:44.278Z,1007.971
2022-11-24T21:03:50.452Z,1007.974
2022-11-24T21:09:00.554Z,1007.951
2022-11-24T21:19:33.194Z,1008.059
2022-11-24T21:24:39.347Z,1008.064
2022-11-24T21:29:45.890Z,1008.082
2022-11-24T21:34:52.971Z,1008.061
2022-11-24T21:39:59.126Z,1008.151
2022-11-24T21:45:04.877Z,1008.066
2022-11-24T21:50:13.976Z,1008.228
2022-11-24T21:55:20.537Z,1008.25
2022-11-24T22:00:26.610Z,1008.27
2022-11-24T22:05:32.775Z,1008.277
2022-11-24T22:10:38.925Z,1008.317
2022-11-24T22:15:44.829Z,1008.309
2022-11-24T22:20:51.067Z,1008.386
2022-11-24T22:25:57.039Z,1008.33
2022-11-24T22:31:03.183Z,1008.38
2022-11-24T22:36:09.441Z,1008.433
2022-11-24T22:41:16.429Z,1008.416
2022-11-24T22:46:22.642Z,1008.437
2022-11-24T22:51:29.700Z,1008.483
2022-11-24T22:56:36.009Z,1008.475
2022-11-24T23:01:42.236Z,1008.443
2022-11-24T23:06:48.548Z,1008.482
2022-11-24T23:11:54.837Z,1008.518
2022-11-24T23:17:00.765Z,1008.505
2022-11-24T23:22:07.776Z,1008.539
2022-11-24T23:27:13.802Z,1008.514
2022-11-24T23:32:19.865Z,1008.53
2022-11-24T23:37:34.408Z,1008.503
2022-11-24T23:42:32.376Z,1008.637
2022-11-24T23:47:42.329Z,1008.631
2022-11-24T23:52:48.529Z,1008.62
2022-11-24T23:57:54.645Z,1008.6
